createdAt,value
2018-04-28T00:00:23.100Z,0
2018-04-28T00:01:03.595Z,0
2018-04-28T00:01:44.127Z,0
2018-04-28T00:02:24.659Z,0
2018-04-28T00:03:05.184Z,0
2018-04-28T00:03:45.698Z,0
2018-04-28T00:04:26.231Z,0
2018-04-28T00:05:06.749Z,0
2018-04-28T00:05:47.280Z,0
2018-04-28T00:06:27.793Z,0
2018-04-28T00:07:08.338Z,0
2018-04-28T00:07:48.889Z,0
2018-04-28T00:08:29.366Z,0
2018-04-28T00:09:09.889Z,0
2018-04-28T00:09:50.414Z,0
2018-04-28T00:10:30.938Z,0
2018-04-28T00:11:11.465Z,0
2018-04-28T00:11:51.989Z,0
2018-04-28T00:12:32.521Z,0
2018-04-28T00:13:13.025Z,0
2018-04-28T00:13:53.549Z,0
2018-04-28T00:14:34.070Z,0
2018-04-28T00:15:14.610Z,0
2018-04-28T00:15:55.122Z,0
2018-04-28T00:16:35.654Z,0
2018-04-28T00:17:16.217Z,0
2018-04-28T00:17:56.716Z,0
2018-04-28T00:18:37.229Z,0
2018-04-28T00:19:17.748Z,0
2018-04-28T00:19:58.277Z,0
2018-04-28T00:20:38.797Z,0
2018-04-28T00:21:19.314Z,0
2018-04-28T00:21:59.848Z,0
2018-04-28T00:22:40.362Z,0
2018-04-28T00:23:20.894Z,0
2018-04-28T00:24:01.410Z,0
2018-04-28T00:24:41.947Z,0
2018-04-28T00:25:22.459Z,0
2018-04-28T00:26:02.969Z,0
2018-04-28T00:26:43.492Z,0
2018-04-28T00:27:24.011Z,0
2018-04-28T00:28:04.538Z,0
2018-04-28T00:28:45.054Z,0
2018-04-28T00:29:25.574Z,0
2018-04-28T00:30:06.109Z,0
2018-04-28T00:30:46.613Z,0
2018-04-28T00:31:27.132Z,0
2018-04-28T00:32:07.643Z,0
2018-04-28T00:32:48.163Z,0
2018-04-28T00:33:28.690Z,0
2018-04-28T00:34:09.227Z,0
2018-04-28T00:34:49.732Z,0
2018-04-28T00:35:30.253Z,0
2018-04-28T00:36:10.781Z,0
2018-04-28T00:36:51.300Z,0
2018-04-28T00:37:31.820Z,0
2018-04-28T00:38:12.345Z,0
2018-04-28T00:38:52.867Z,0
2018-04-28T00:39:33.390Z,0
2018-04-28T00:40:13.917Z,0
2018-04-28T00:40:54.434Z,0
2018-04-28T00:41:34.959Z,0
2018-04-28T00:42:15.481Z,0
2018-04-28T00:42:55.999Z,0
2018-04-28T00:43:36.516Z,0
2018-04-28T00:44:17.058Z,0
2018-04-28T00:44:57.570Z,0
2018-04-28T00:45:38.091Z,0
2018-04-28T00:46:18.610Z,0
2018-04-28T00:46:59.116Z,0
2018-04-28T00:47:39.637Z,0
2018-04-28T00:48:20.165Z,0
2018-04-28T00:49:00.686Z,0
2018-04-28T00:49:41.208Z,0
2018-04-28T00:50:21.739Z,0
2018-04-28T00:51:02.301Z,0
2018-04-28T00:51:42.837Z,0
2018-04-28T00:52:23.357Z,0
2018-04-28T00:53:03.880Z,0
2018-04-28T00:53:44.412Z,0
2018-04-28T00:54:24.937Z,0
2018-04-28T00:55:05.448Z,0
2018-04-28T00:55:45.970Z,0
2018-04-28T00:56:26.479Z,0
2018-04-28T00:57:07.004Z,0
2018-04-28T00:57:47.516Z,0
2018-04-28T00:58:28.038Z,0
2018-04-28T00:59:08.561Z,0
2018-04-28T00:59:49.080Z,0
2018-04-28T01:00:29.597Z,0
2018-04-28T01:01:10.117Z,0
2018-04-28T01:01:50.643Z,0
2018-04-28T01:02:31.164Z,0
2018-04-28T01:03:11.692Z,0
2018-04-28T01:03:52.218Z,0
2018-04-28T01:04:32.745Z,0
2018-04-28T01:05:13.262Z,0
2018-04-28T01:05:53.796Z,0
2018-04-28T01:06:34.328Z,0
2018-04-28T01:07:14.848Z,0
2018-04-28T01:07:55.369Z,0
2018-04-28T01:08:35.891Z,0
2018-04-28T01:09:16.425Z,0
2018-04-28T01:09:56.929Z,0
2018-04-28T01:10:37.462Z,0
2018-04-28T01:11:17.983Z,0
2018-04-28T01:11:58.498Z,0
2018-04-28T01:12:39.003Z,0
2018-04-28T01:13:19.541Z,0
2018-04-28T01:14:00.080Z,0
2018-04-28T01:14:40.589Z,0
2018-04-28T01:15:21.117Z,0
2018-04-28T01:16:01.634Z,0
2018-04-28T01:16:42.194Z,0
2018-04-28T01:17:22.699Z,0
2018-04-28T01:18:03.212Z,0
2018-04-28T01:18:43.740Z,0
2018-04-28T01:19:24.260Z,0
2018-04-28T01:20:04.785Z,0
2018-04-28T01:20:45.307Z,0
2018-04-28T01:21:25.839Z,0
2018-04-28T01:22:06.366Z,0
2018-04-28T01:22:46.880Z,0
2018-04-28T01:23:27.408Z,0
2018-04-28T01:24:07.920Z,0
2018-04-28T01:24:48.439Z,0
2018-04-28T01:25:28.959Z,0
2018-04-28T01:26:09.478Z,0
2018-04-28T01:26:50.010Z,0
2018-04-28T01:27:30.526Z,0
2018-04-28T01:28:11.036Z,0
2018-04-28T01:28:51.548Z,0
2018-04-28T01:29:32.061Z,0
2018-04-28T01:30:12.589Z,0
2018-04-28T01:30:53.106Z,0
2018-04-28T01:31:33.633Z,0
2018-04-28T01:32:14.173Z,0
2018-04-28T01:32:54.690Z,0
2018-04-28T01:33:35.202Z,0
2018-04-28T01:34:15.720Z,0
2018-04-28T01:34:56.235Z,0
2018-04-28T01:35:36.763Z,0
2018-04-28T01:36:17.272Z,0
2018-04-28T01:36:57.795Z,0
2018-04-28T01:37:38.316Z,0
2018-04-28T01:38:18.830Z,0
2018-04-28T01:38:59.350Z,0
2018-04-28T01:39:39.862Z,0
2018-04-28T01:40:20.380Z,0
2018-04-28T01:41:00.889Z,0
2018-04-28T01:41:41.420Z,0
2018-04-28T01:42:21.932Z,0
2018-04-28T01:43:02.463Z,0
2018-04-28T01:43:42.975Z,0
2018-04-28T01:44:23.485Z,0
2018-04-28T01:45:04.025Z,0
2018-04-28T01:45:44.543Z,0
2018-04-28T01:46:25.076Z,0
2018-04-28T01:47:05.595Z,0
2018-04-28T01:47:46.115Z,0
2018-04-28T01:48:26.644Z,0
2018-04-28T01:49:07.169Z,0
2018-04-28T01:49:47.674Z,0
2018-04-28T01:50:28.184Z,0
2018-04-28T01:51:08.697Z,0
2018-04-28T01:51:49.225Z,0
2018-04-28T01:52:29.747Z,0
2018-04-28T01:53:10.264Z,0
2018-04-28T01:53:50.779Z,0
2018-04-28T01:54:31.303Z,0
2018-04-28T01:55:11.826Z,0
2018-04-28T01:55:52.355Z,0
2018-04-28T01:56:32.878Z,0
2018-04-28T01:57:13.401Z,0
2018-04-28T01:57:53.917Z,0
2018-04-28T01:58:34.446Z,0
2018-04-28T01:59:14.962Z,0
2018-04-28T01:59:55.500Z,0
2018-04-28T02:00:35.996Z,0
2018-04-28T02:01:16.518Z,0
2018-04-28T02:01:57.049Z,0
2018-04-28T02:02:37.575Z,0
2018-04-28T02:03:18.106Z,0
2018-04-28T02:03:58.621Z,0
2018-04-28T02:04:39.135Z,0
2018-04-28T02:05:19.654Z,0
2018-04-28T02:06:00.170Z,0
2018-04-28T02:06:40.689Z,0
2018-04-28T02:07:21.213Z,0
2018-04-28T02:08:01.736Z,0
2018-04-28T02:08:42.402Z,0
2018-04-28T02:09:22.944Z,0
2018-04-28T02:10:03.463Z,0
2018-04-28T02:10:43.987Z,0
2018-04-28T02:11:24.513Z,0
2018-04-28T02:12:05.028Z,0
2018-04-28T02:12:45.541Z,0
2018-04-28T02:13:26.090Z,0
2018-04-28T02:14:06.608Z,0
2018-04-28T02:14:47.121Z,0
2018-04-28T02:15:27.647Z,0
2018-04-28T02:16:08.159Z,0
2018-04-28T02:16:48.674Z,0
2018-04-28T02:17:29.192Z,0
2018-04-28T02:18:09.719Z,0
2018-04-28T02:18:50.233Z,0
2018-04-28T02:19:30.764Z,0
2018-04-28T02:20:11.284Z,0
2018-04-28T02:20:51.796Z,0
2018-04-28T02:21:32.327Z,0
2018-04-28T02:22:12.846Z,0
2018-04-28T02:22:53.360Z,0
2018-04-28T02:23:33.885Z,0
2018-04-28T02:24:14.408Z,0
2018-04-28T02:24:54.917Z,0
2018-04-28T02:25:35.444Z,0
2018-04-28T02:26:15.979Z,0
2018-04-28T02:26:56.490Z,0
2018-04-28T02:27:37.016Z,0
2018-04-28T02:28:18.116Z,0
2018-04-28T02:28:58.050Z,0
2018-04-28T02:29:38.572Z,0
2018-04-28T02:30:19.100Z,0
2018-04-28T02:30:59.628Z,0
2018-04-28T02:31:40.159Z,0
2018-04-28T02:32:20.662Z,0
2018-04-28T02:33:01.185Z,0
2018-04-28T02:33:41.702Z,0
2018-04-28T02:34:22.221Z,0
2018-04-28T02:35:02.732Z,0
2018-04-28T02:35:43.241Z,0
2018-04-28T02:36:23.781Z,0
2018-04-28T02:37:04.289Z,0
2018-04-28T02:37:44.811Z,0
2018-04-28T02:38:25.344Z,0
2018-04-28T02:39:05.854Z,0
2018-04-28T02:39:46.387Z,0
2018-04-28T02:40:26.905Z,0
2018-04-28T02:41:07.417Z,0
2018-04-28T02:41:47.933Z,0
2018-04-28T02:42:28.454Z,0
2018-04-28T02:43:08.969Z,0
2018-04-28T02:43:49.481Z,0
2018-04-28T02:44:30.006Z,0
2018-04-28T02:45:10.524Z,0
2018-04-28T02:45:51.058Z,0
2018-04-28T02:46:31.594Z,0
2018-04-28T02:47:12.118Z,0
2018-04-28T02:47:52.643Z,0
2018-04-28T02:48:33.166Z,0
2018-04-28T02:49:13.686Z,0
2018-04-28T02:49:54.225Z,0
2018-04-28T02:50:34.734Z,0
2018-04-28T02:51:15.252Z,0
2018-04-28T02:51:55.771Z,0
2018-04-28T02:52:36.296Z,0
2018-04-28T02:53:16.807Z,0
2018-04-28T02:53:57.326Z,0
2018-04-28T02:54:37.872Z,0
2018-04-28T02:55:18.373Z,0
2018-04-28T02:55:58.890Z,0
2018-04-28T02:56:39.405Z,0
2018-04-28T02:57:19.921Z,0
2018-04-28T02:58:00.446Z,0
2018-04-28T02:58:40.960Z,0
2018-04-28T02:59:21.476Z,0
2018-04-28T03:00:01.992Z,0
2018-04-28T03:00:42.513Z,0
2018-04-28T03:01:23.031Z,0
2018-04-28T03:02:03.547Z,0
2018-04-28T03:02:44.077Z,0
2018-04-28T03:03:24.579Z,0
2018-04-28T03:04:05.112Z,0
2018-04-28T03:04:45.639Z,0
2018-04-28T03:05:26.162Z,0
2018-04-28T03:06:06.677Z,0
2018-04-28T03:06:47.193Z,0
2018-04-28T03:07:27.707Z,0
2018-04-28T03:08:08.245Z,0
2018-04-28T03:08:48.755Z,0
2018-04-28T03:09:29.269Z,0
2018-04-28T03:10:09.783Z,0
2018-04-28T03:10:50.310Z,0
2018-04-28T03:11:30.827Z,0
2018-04-28T03:12:11.355Z,0
2018-04-28T03:12:51.875Z,0
2018-04-28T03:13:32.416Z,0
2018-04-28T03:14:12.927Z,0
2018-04-28T03:14:53.447Z,0
2018-04-28T03:15:33.971Z,0
2018-04-28T03:16:14.484Z,0
2018-04-28T03:16:55.001Z,0
2018-04-28T03:17:35.528Z,0
2018-04-28T03:18:16.041Z,0
2018-04-28T03:18:56.559Z,0
2018-04-28T03:19:37.092Z,0
2018-04-28T03:20:17.595Z,0
2018-04-28T03:20:58.121Z,0
2018-04-28T03:21:38.645Z,0
2018-04-28T03:22:19.181Z,0
2018-04-28T03:22:59.699Z,0
2018-04-28T03:23:40.220Z,0
2018-04-28T03:24:20.784Z,0
2018-04-28T03:25:01.266Z,0
2018-04-28T03:25:41.778Z,0
2018-04-28T03:26:22.293Z,0
2018-04-28T03:27:02.821Z,0
2018-04-28T03:27:43.339Z,0
2018-04-28T03:28:23.852Z,0
2018-04-28T03:29:04.382Z,0
2018-04-28T03:29:44.899Z,0
2018-04-28T03:30:25.430Z,0
2018-04-28T03:31:05.934Z,0
2018-04-28T03:31:46.457Z,0
2018-04-28T03:32:26.979Z,0
2018-04-28T03:33:07.499Z,0
2018-04-28T03:33:48.021Z,0
2018-04-28T03:34:28.558Z,0
2018-04-28T03:35:09.075Z,0
2018-04-28T03:35:49.598Z,0
2018-04-28T03:36:30.130Z,0
2018-04-28T03:37:10.647Z,0
2018-04-28T03:37:51.155Z,0
2018-04-28T03:38:31.668Z,0
2018-04-28T03:39:12.207Z,0
2018-04-28T03:39:52.706Z,0
2018-04-28T03:40:33.240Z,0
2018-04-28T03:41:13.773Z,0
2018-04-28T03:41:54.266Z,0
2018-04-28T03:42:34.788Z,0
2018-04-28T03:43:15.302Z,0
2018-04-28T03:43:55.850Z,0
2018-04-28T03:44:36.354Z,0
2018-04-28T03:45:16.875Z,4
2018-04-28T03:45:57.398Z,4
2018-04-28T03:46:37.926Z,0
2018-04-28T03:47:18.457Z,0
2018-04-28T03:47:58.985Z,0
2018-04-28T03:48:39.510Z,4
2018-04-28T03:49:20.036Z,4
2018-04-28T03:50:00.557Z,4
2018-04-28T03:50:41.078Z,4
2018-04-28T03:51:21.604Z,4
2018-04-28T03:52:02.138Z,8
2018-04-28T03:52:42.672Z,4
2018-04-28T03:53:23.225Z,8
2018-04-28T03:54:03.775Z,4
2018-04-28T03:54:44.267Z,8
2018-04-28T03:55:24.765Z,12
2018-04-28T03:56:05.283Z,8
2018-04-28T03:56:45.813Z,8
2018-04-28T03:57:26.311Z,12
2018-04-28T03:58:06.823Z,12
2018-04-28T03:58:47.337Z,12
2018-04-28T03:59:27.856Z,16
2018-04-28T04:00:08.382Z,20
2018-04-28T04:00:48.898Z,20
2018-04-28T04:01:29.429Z,20
2018-04-28T04:02:09.946Z,24
2018-04-28T04:02:50.467Z,28
2018-04-28T04:03:30.986Z,28
2018-04-28T04:04:11.515Z,32
2018-04-28T04:04:52.035Z,32
2018-04-28T04:05:32.565Z,36
2018-04-28T04:06:13.083Z,40
2018-04-28T04:06:53.613Z,44
2018-04-28T04:07:34.114Z,48
2018-04-28T04:08:14.642Z,52
2018-04-28T04:08:55.159Z,52
2018-04-28T04:09:35.677Z,56
2018-04-28T04:10:16.197Z,64
2018-04-28T04:10:56.714Z,68
2018-04-28T04:11:37.233Z,72
2018-04-28T04:12:17.745Z,76
2018-04-28T04:12:58.251Z,80
2018-04-28T04:13:38.783Z,84
2018-04-28T04:14:19.307Z,92
2018-04-28T04:14:59.832Z,96
2018-04-28T04:15:40.346Z,104
2018-04-28T04:16:20.873Z,108
2018-04-28T04:17:01.382Z,116
2018-04-28T04:17:41.910Z,124
2018-04-28T04:18:22.427Z,128
2018-04-28T04:19:02.946Z,136
2018-04-28T04:19:43.467Z,144
2018-04-28T04:20:23.989Z,148
2018-04-28T04:21:04.505Z,160
2018-04-28T04:21:45.023Z,172
2018-04-28T04:22:25.541Z,184
2018-04-28T04:23:06.061Z,188
2018-04-28T04:23:46.606Z,196
2018-04-28T04:24:27.092Z,200
2018-04-28T04:25:07.605Z,216
2018-04-28T04:25:48.139Z,224
2018-04-28T04:26:28.771Z,236
2018-04-28T04:27:09.191Z,248
2018-04-28T04:27:49.717Z,260
2018-04-28T04:28:30.237Z,272
2018-04-28T04:29:10.758Z,288
2018-04-28T04:29:51.285Z,300
2018-04-28T04:30:31.807Z,316
2018-04-28T04:31:12.326Z,336
2018-04-28T04:31:52.891Z,364
2018-04-28T04:32:33.383Z,396
2018-04-28T04:33:13.907Z,432
2018-04-28T04:33:54.442Z,468
2018-04-28T04:34:34.964Z,500
2018-04-28T04:35:15.494Z,540
2018-04-28T04:35:56.019Z,576
2018-04-28T04:36:36.543Z,616
2018-04-28T04:37:17.063Z,656
2018-04-28T04:37:57.586Z,688
2018-04-28T04:38:38.105Z,732
2018-04-28T04:39:18.627Z,780
2018-04-28T04:39:59.136Z,824
2018-04-28T04:40:39.671Z,856
2018-04-28T04:41:20.181Z,880
2018-04-28T04:42:00.695Z,908
2018-04-28T04:42:41.237Z,932
2018-04-28T04:43:21.769Z,952
2018-04-28T04:44:02.296Z,964
2018-04-28T04:44:42.816Z,976
2018-04-28T04:45:23.331Z,1000
2018-04-28T04:46:03.852Z,1040
2018-04-28T04:46:44.367Z,1084
2018-04-28T04:47:24.884Z,1136
2018-04-28T04:48:05.404Z,1208
2018-04-28T04:48:45.929Z,1248
2018-04-28T04:49:26.458Z,1284
2018-04-28T04:50:06.967Z,1300
2018-04-28T04:50:47.489Z,1328
2018-04-28T04:51:28.014Z,1344
2018-04-28T04:52:08.537Z,1348
2018-04-28T04:52:49.044Z,1408
2018-04-28T04:53:29.555Z,1504
2018-04-28T04:54:10.068Z,1528
2018-04-28T04:54:50.593Z,1500
2018-04-28T04:55:31.118Z,1448
2018-04-28T04:56:11.642Z,1412
2018-04-28T04:56:52.157Z,1372
2018-04-28T04:57:32.693Z,1360
2018-04-28T04:58:13.202Z,1360
2018-04-28T04:58:53.723Z,1364
2018-04-28T04:59:34.255Z,1376
2018-04-28T05:00:14.771Z,1412
2018-04-28T05:00:55.299Z,1436
2018-04-28T05:01:35.818Z,1500
2018-04-28T05:02:16.353Z,1568
2018-04-28T05:02:56.861Z,1616
2018-04-28T05:03:37.382Z,1624
2018-04-28T05:04:17.900Z,1560
2018-04-28T05:04:58.417Z,1468
2018-04-28T05:05:38.964Z,1436
2018-04-28T05:06:19.482Z,1432
2018-04-28T05:06:59.998Z,1444
2018-04-28T05:07:40.502Z,1456
2018-04-28T05:08:21.021Z,1412
2018-04-28T05:09:01.521Z,1372
2018-04-28T05:09:42.050Z,1376
2018-04-28T05:10:22.561Z,1416
2018-04-28T05:11:03.085Z,1496
2018-04-28T05:11:43.617Z,1504
2018-04-28T05:12:24.146Z,1532
2018-04-28T05:13:04.675Z,1620
2018-04-28T05:13:45.196Z,1716
2018-04-28T05:14:25.716Z,1808
2018-04-28T05:15:06.228Z,1876
2018-04-28T05:15:46.743Z,1900
2018-04-28T05:16:27.255Z,1904
2018-04-28T05:17:07.765Z,1908
2018-04-28T05:17:48.283Z,1916
2018-04-28T05:18:28.811Z,1940
2018-04-28T05:19:09.351Z,1968
2018-04-28T05:19:49.861Z,2016
2018-04-28T05:20:30.380Z,2100
2018-04-28T05:21:10.899Z,2208
2018-04-28T05:21:51.412Z,2296
2018-04-28T05:22:31.931Z,2452
2018-04-28T05:23:12.452Z,2604
2018-04-28T05:23:52.980Z,2708
2018-04-28T05:24:33.496Z,2752
2018-04-28T05:25:14.015Z,2788
2018-04-28T05:25:54.544Z,2756
2018-04-28T05:26:35.068Z,2684
2018-04-28T05:27:15.580Z,2728
2018-04-28T05:27:56.144Z,2824
2018-04-28T05:28:36.650Z,2832
2018-04-28T05:29:17.162Z,2828
2018-04-28T05:29:57.679Z,2964
2018-04-28T05:30:38.200Z,3176
2018-04-28T05:31:18.731Z,3276
2018-04-28T05:31:59.262Z,3388
2018-04-28T05:32:39.784Z,3528
2018-04-28T05:33:20.296Z,3496
2018-04-28T05:34:00.821Z,3756
2018-04-28T05:34:41.350Z,3892
2018-04-28T05:35:21.877Z,4044
2018-04-28T05:36:02.442Z,3588
2018-04-28T05:36:42.914Z,3648
2018-04-28T05:37:23.443Z,4040
2018-04-28T05:38:03.959Z,3676
2018-04-28T05:38:44.468Z,3720
2018-04-28T05:39:25.011Z,4336
2018-04-28T05:40:05.520Z,4752
2018-04-28T05:40:46.040Z,4060
2018-04-28T05:41:26.573Z,4524
2018-04-28T05:42:07.098Z,5308
2018-04-28T05:42:47.607Z,5576
2018-04-28T05:43:28.125Z,5932
2018-04-28T05:44:08.637Z,6188
2018-04-28T05:44:49.155Z,6548
2018-04-28T05:45:29.680Z,6604
2018-04-28T05:46:10.208Z,6348
2018-04-28T05:46:50.730Z,6032
2018-04-28T05:47:31.245Z,5892
2018-04-28T05:48:11.760Z,5780
2018-04-28T05:48:52.277Z,5664
2018-04-28T05:49:32.797Z,5664
2018-04-28T05:50:13.312Z,5512
2018-04-28T05:50:53.825Z,5096
2018-04-28T05:51:34.349Z,4748
2018-04-28T05:52:14.877Z,4516
2018-04-28T05:52:55.400Z,4840
2018-04-28T05:53:35.919Z,4660
2018-04-28T05:54:16.433Z,4464
2018-04-28T05:54:56.977Z,4352
2018-04-28T05:55:37.495Z,4228
2018-04-28T05:56:18.011Z,4212
2018-04-28T05:56:58.527Z,4140
2018-04-28T05:57:39.048Z,4116
2018-04-28T05:58:19.569Z,4044
2018-04-28T05:59:00.100Z,4044
2018-04-28T05:59:40.621Z,4088
2018-04-28T06:00:21.144Z,3580
2018-04-28T06:01:01.673Z,3452
2018-04-28T06:01:42.178Z,3392
2018-04-28T06:02:22.691Z,3380
2018-04-28T06:03:03.297Z,3456
2018-04-28T06:03:43.825Z,3340
2018-04-28T06:04:24.345Z,3248
2018-04-28T06:05:04.866Z,3176
2018-04-28T06:05:45.387Z,3020
2018-04-28T06:06:25.900Z,2988
2018-04-28T06:07:06.440Z,3412
2018-04-28T06:07:46.981Z,3420
2018-04-28T06:08:27.512Z,3192
2018-04-28T06:09:08.047Z,3352
2018-04-28T06:09:48.563Z,3592
2018-04-28T06:10:29.598Z,3740
2018-04-28T06:11:10.114Z,3812
2018-04-28T06:11:50.772Z,4088
2018-04-28T06:12:31.290Z,4092
2018-04-28T06:13:11.835Z,3932
2018-04-28T06:13:52.367Z,3492
2018-04-28T06:14:32.890Z,3124
2018-04-28T06:15:13.409Z,2952
2018-04-28T06:15:53.930Z,2828
2018-04-28T06:16:34.472Z,2980
2018-04-28T06:17:15.007Z,3224
2018-04-28T06:17:55.527Z,3536
2018-04-28T06:18:36.138Z,3452
2018-04-28T06:19:16.663Z,3436
2018-04-28T06:19:57.387Z,3308
2018-04-28T06:20:37.838Z,3312
2018-04-28T06:21:18.359Z,3456
2018-04-28T06:21:58.878Z,3668
2018-04-28T06:22:39.408Z,3920
2018-04-28T06:23:19.933Z,4004
2018-04-28T06:24:00.462Z,4076
2018-04-28T06:24:40.982Z,4144
2018-04-28T06:25:21.511Z,4284
2018-04-28T06:26:02.112Z,4324
2018-04-28T06:26:42.577Z,4232
2018-04-28T06:27:23.091Z,4504
2018-04-28T06:28:03.623Z,5040
2018-04-28T06:28:44.133Z,5152
2018-04-28T06:29:24.655Z,4404
2018-04-28T06:30:05.186Z,4472
2018-04-28T06:30:45.710Z,5232
2018-04-28T06:31:26.230Z,5288
2018-04-28T06:32:06.747Z,5584
2018-04-28T06:32:47.254Z,5644
2018-04-28T06:33:27.761Z,5492
2018-04-28T06:34:08.272Z,5352
2018-04-28T06:34:48.790Z,5444
2018-04-28T06:35:29.312Z,5396
2018-04-28T06:36:09.851Z,5308
2018-04-28T06:36:50.380Z,5312
2018-04-28T06:37:30.899Z,5312
2018-04-28T06:38:11.416Z,5272
2018-04-28T06:38:51.934Z,5380
2018-04-28T06:39:32.454Z,5496
2018-04-28T06:40:12.969Z,5520
2018-04-28T06:40:53.485Z,5572
2018-04-28T06:41:34.008Z,5652
2018-04-28T06:42:14.547Z,5732
2018-04-28T06:42:55.063Z,5768
2018-04-28T06:43:35.583Z,5760
2018-04-28T06:44:16.091Z,5860
2018-04-28T06:44:56.615Z,6036
2018-04-28T06:45:37.162Z,6032
2018-04-28T06:46:17.732Z,6136
2018-04-28T06:46:58.242Z,6228
2018-04-28T06:47:38.763Z,6088
2018-04-28T06:48:19.274Z,6168
2018-04-28T06:48:59.784Z,6208
2018-04-28T06:49:40.331Z,6364
2018-04-28T06:50:20.852Z,6376
2018-04-28T06:51:01.440Z,6280
2018-04-28T06:51:41.872Z,6084
2018-04-28T06:52:22.409Z,6320
2018-04-28T06:53:02.939Z,6292
2018-04-28T06:53:43.469Z,6152
2018-04-28T06:54:23.993Z,6252
2018-04-28T06:55:04.524Z,6168
2018-04-28T06:55:45.054Z,5992
2018-04-28T06:56:25.585Z,5652
2018-04-28T06:57:06.107Z,5828
2018-04-28T06:57:46.630Z,6008
2018-04-28T06:58:27.205Z,6092
2018-04-28T06:59:07.701Z,6140
2018-04-28T06:59:48.166Z,6220
2018-04-28T07:00:28.682Z,6220
2018-04-28T07:01:09.202Z,6300
2018-04-28T07:01:49.724Z,6340
2018-04-28T07:02:30.245Z,6316
2018-04-28T07:03:10.759Z,6236
2018-04-28T07:03:51.291Z,6188
2018-04-28T07:04:32.067Z,6172
2018-04-28T07:05:12.573Z,6088
2018-04-28T07:05:53.096Z,6368
2018-04-28T07:06:33.615Z,5760
2018-04-28T07:07:14.139Z,5764
2018-04-28T07:07:54.671Z,6332
2018-04-28T07:08:35.198Z,6472
2018-04-28T07:09:15.728Z,6684
2018-04-28T07:09:56.258Z,6472
2018-04-28T07:10:36.790Z,6504
2018-04-28T07:11:17.304Z,5212
2018-04-28T07:11:57.841Z,3924
2018-04-28T07:12:38.357Z,3880
2018-04-28T07:13:18.895Z,4344
2018-04-28T07:13:59.407Z,4520
2018-04-28T07:14:39.926Z,5140
2018-04-28T07:15:20.450Z,5872
2018-04-28T07:16:01.008Z,5488
2018-04-28T07:16:41.575Z,7376
2018-04-28T07:17:22.114Z,5888
2018-04-28T07:18:02.654Z,5880
2018-04-28T07:18:43.189Z,7048
2018-04-28T07:19:23.754Z,7896
2018-04-28T07:20:04.275Z,7360
2018-04-28T07:20:44.791Z,7396
2018-04-28T07:21:25.364Z,7176
2018-04-28T07:22:05.902Z,6980
2018-04-28T07:22:46.442Z,6712
2018-04-28T07:23:26.956Z,6504
2018-04-28T07:24:07.487Z,6440
2018-04-28T07:24:48.009Z,5856
2018-04-28T07:25:28.562Z,5428
2018-04-28T07:26:09.077Z,6236
2018-04-28T07:26:49.596Z,5996
2018-04-28T07:27:30.157Z,5252
2018-04-28T07:28:10.699Z,4428
2018-04-28T07:28:51.221Z,4548
2018-04-28T07:29:31.819Z,4120
2018-04-28T07:30:12.336Z,3924
2018-04-28T07:30:52.853Z,3964
2018-04-28T07:31:33.370Z,3772
2018-04-28T07:32:13.899Z,3788
2018-04-28T07:32:54.423Z,4008
2018-04-28T07:33:34.943Z,6208
2018-04-28T07:34:15.455Z,6380
2018-04-28T07:34:55.990Z,6732
2018-04-28T07:35:36.515Z,5028
2018-04-28T07:36:17.040Z,4500
2018-04-28T07:36:57.746Z,4412
2018-04-28T07:37:38.237Z,5960
2018-04-28T07:38:18.758Z,4840
2018-04-28T07:38:59.309Z,4288
2018-04-28T07:39:39.958Z,4100
2018-04-28T07:40:20.511Z,4140
2018-04-28T07:41:01.003Z,4400
2018-04-28T07:41:41.525Z,4780
2018-04-28T07:42:22.045Z,5084
2018-04-28T07:43:02.557Z,5364
2018-04-28T07:43:43.125Z,5692
2018-04-28T07:44:23.642Z,6108
2018-04-28T07:45:04.241Z,6464
2018-04-28T07:45:44.777Z,6712
2018-04-28T07:46:25.285Z,6832
2018-04-28T07:47:05.847Z,6924
2018-04-28T07:47:46.408Z,6804
2018-04-28T07:48:26.932Z,6584
2018-04-28T07:49:07.479Z,6320
2018-04-28T07:49:47.982Z,6104
2018-04-28T07:50:28.489Z,5876
2018-04-28T07:51:09.031Z,5704
2018-04-28T07:51:49.620Z,5584
2018-04-28T07:52:30.077Z,5436
2018-04-28T07:53:10.591Z,5308
2018-04-28T07:53:51.112Z,5200
2018-04-28T07:54:31.635Z,5188
2018-04-28T07:55:12.143Z,5252
2018-04-28T07:55:52.720Z,5436
2018-04-28T07:56:33.247Z,5676
2018-04-28T07:57:13.770Z,6008
2018-04-28T07:57:54.288Z,6468
2018-04-28T07:58:34.846Z,6552
2018-04-28T07:59:15.383Z,6468
2018-04-28T07:59:55.916Z,6224
2018-04-28T08:00:36.448Z,6052
2018-04-28T08:01:16.964Z,5960
2018-04-28T08:01:57.492Z,5964
2018-04-28T08:02:37.998Z,5680
2018-04-28T08:03:18.535Z,5512
2018-04-28T08:03:59.028Z,5468
2018-04-28T08:04:39.540Z,5432
2018-04-28T08:05:20.052Z,5432
2018-04-28T08:06:00.588Z,5248
2018-04-28T08:06:41.141Z,5168
2018-04-28T08:07:21.637Z,4948
2018-04-28T08:08:02.148Z,4840
2018-04-28T08:08:42.655Z,4900
2018-04-28T08:09:23.194Z,4776
2018-04-28T08:10:03.697Z,4624
2018-04-28T08:10:44.199Z,4484
2018-04-28T08:11:24.708Z,4384
2018-04-28T08:12:05.227Z,4392
2018-04-28T08:12:45.800Z,4504
2018-04-28T08:13:26.336Z,4688
2018-04-28T08:14:06.898Z,4868
2018-04-28T08:14:47.436Z,5056
2018-04-28T08:15:27.981Z,5340
2018-04-28T08:16:08.463Z,5620
2018-04-28T08:16:49.007Z,5840
2018-04-28T08:17:29.518Z,6012
2018-04-28T08:18:10.034Z,6012
2018-04-28T08:18:50.550Z,6032
2018-04-28T08:19:31.060Z,6136
2018-04-28T08:21:44.395Z,6512
2018-04-28T08:22:25.031Z,5952
2018-04-28T08:23:05.540Z,5620
2018-04-28T08:23:46.060Z,5520
2018-04-28T08:24:26.576Z,5356
2018-04-28T08:25:07.089Z,5252
2018-04-28T08:25:47.642Z,5284
2018-04-28T08:26:28.178Z,4964
2018-04-28T08:27:08.674Z,4928
2018-04-28T08:27:49.204Z,4948
2018-04-28T08:28:29.739Z,4372
2018-04-28T08:29:10.263Z,4596
2018-04-28T08:29:50.790Z,4364
2018-04-28T08:30:31.299Z,4104
2018-04-28T08:31:11.823Z,4316
2018-04-28T08:31:52.348Z,4092
2018-04-28T08:32:32.898Z,3672
2018-04-28T08:33:13.551Z,3528
2018-04-28T08:33:54.060Z,3752
2018-04-28T08:34:34.593Z,3916
2018-04-28T08:35:15.119Z,3880
2018-04-28T08:35:55.619Z,4296
2018-04-28T08:36:36.125Z,4340
2018-04-28T08:37:16.832Z,4244
2018-04-28T08:37:57.201Z,4060
2018-04-28T08:38:37.718Z,3888
2018-04-28T08:39:18.241Z,3740
2018-04-28T08:39:58.747Z,3668
2018-04-28T08:40:39.276Z,3672
2018-04-28T08:41:19.770Z,3664
2018-04-28T08:42:00.296Z,3652
2018-04-28T08:42:40.812Z,3572
2018-04-28T08:43:21.338Z,3528
2018-04-28T08:44:01.844Z,3612
2018-04-28T08:44:42.356Z,3464
2018-04-28T08:45:22.861Z,3560
2018-04-28T08:46:03.386Z,3640
2018-04-28T08:46:43.909Z,3648
2018-04-28T08:47:24.421Z,3668
2018-04-28T08:48:05.010Z,3596
2018-04-28T08:48:45.502Z,3568
2018-04-28T08:49:26.028Z,3644
2018-04-28T08:50:06.604Z,3564
2018-04-28T08:50:47.049Z,3596
2018-04-28T08:51:27.563Z,3564
2018-04-28T08:52:08.101Z,3520
2018-04-28T08:52:48.607Z,3508
2018-04-28T08:53:29.144Z,3496
2018-04-28T08:54:09.654Z,3556
2018-04-28T08:54:50.201Z,3668
2018-04-28T08:55:30.721Z,3108
2018-04-28T08:56:11.213Z,3012
2018-04-28T08:56:51.765Z,3664
2018-04-28T08:57:32.278Z,3704
2018-04-28T08:58:12.825Z,3680
2018-04-28T08:58:53.345Z,3736
2018-04-28T08:59:33.886Z,3492
2018-04-28T09:00:14.416Z,3124
2018-04-28T09:00:54.921Z,2952
2018-04-28T09:01:35.453Z,2860
2018-04-28T09:02:15.944Z,2840
2018-04-28T09:02:56.466Z,2892
2018-04-28T09:03:37.077Z,2864
2018-04-28T09:04:17.596Z,2820
2018-04-28T09:04:58.069Z,2816
2018-04-28T09:05:38.587Z,2840
2018-04-28T09:06:19.113Z,2872
2018-04-28T09:06:59.634Z,2940
2018-04-28T09:07:40.155Z,3000
2018-04-28T09:08:20.670Z,3076
2018-04-28T09:09:01.180Z,3128
2018-04-28T09:09:41.711Z,3204
2018-04-28T09:10:22.221Z,3300
2018-04-28T09:11:02.766Z,3408
2018-04-28T09:11:43.275Z,3504
2018-04-28T09:12:23.816Z,3636
2018-04-28T09:13:04.472Z,4236
2018-04-28T09:13:44.943Z,4216
2018-04-28T09:14:25.469Z,4420
2018-04-28T09:15:05.991Z,4588
2018-04-28T09:15:46.533Z,4752
2018-04-28T09:16:27.060Z,4888
2018-04-28T09:17:07.570Z,5052
2018-04-28T09:17:48.269Z,5064
2018-04-28T09:18:28.797Z,4940
2018-04-28T09:19:09.377Z,5076
2018-04-28T09:19:49.853Z,4868
2018-04-28T09:20:30.412Z,5024
2018-04-28T09:21:10.921Z,5376
2018-04-28T09:21:51.463Z,5872
2018-04-28T09:22:31.988Z,6192
2018-04-28T09:23:12.478Z,6312
2018-04-28T09:23:52.996Z,6440
2018-04-28T09:24:33.514Z,6524
2018-04-28T09:25:14.037Z,6384
2018-04-28T09:25:54.551Z,6340
2018-04-28T09:26:35.072Z,6148